sensor_id;sensor_type;location;lat;lon;timestamp;P1;durP1;ratioP1;P2;durP2;ratioP2
52318;SDS011;38258;51.148;14.068;2023-12-20T00:00:20;5.72;;;3.33;;
52318;SDS011;38258;51.148;14.068;2023-12-20T00:02:47;6.43;;;3.53;;
52318;SDS011;38258;51.148;14.068;2023-12-20T00:05:13;6.05;;;3.55;;
52318;SDS011;38258;51.148;14.068;2023-12-20T00:07:41;5.75;;;3.30;;
52318;SDS011;38258;51.148;14.068;2023-12-20T00:10:08;5.55;;;3.42;;
52318;SDS011;38258;51.148;14.068;2023-12-20T00:12:35;7.57;;;2.97;;
52318;SDS011;38258;51.148;14.068;2023-12-20T00:15:01;6.85;;;3.40;;
52318;SDS011;38258;51.148;14.068;2023-12-20T00:17:28;5.68;;;3.42;;
52318;SDS011;38258;51.148;14.068;2023-12-20T00:19:54;5.60;;;3.15;;
52318;SDS011;38258;51.148;14.068;2023-12-20T00:22:21;6.85;;;4.07;;
52318;SDS011;38258;51.148;14.068;2023-12-20T00:24:49;6.10;;;3.40;;
52318;SDS011;38258;51.148;14.068;2023-12-20T00:27:15;5.25;;;3.22;;
52318;SDS011;38258;51.148;14.068;2023-12-20T00:29:41;5.38;;;2.75;;
52318;SDS011;38258;51.148;14.068;2023-12-20T00:32:12;5.60;;;3.00;;
52318;SDS011;38258;51.148;14.068;2023-12-20T00:34:39;5.20;;;3.22;;
52318;SDS011;38258;51.148;14.068;2023-12-20T00:37:05;6.03;;;2.95;;
52318;SDS011;38258;51.148;14.068;2023-12-20T00:39:32;6.88;;;3.58;;
52318;SDS011;38258;51.148;14.068;2023-12-20T00:42:00;5.78;;;3.35;;
52318;SDS011;38258;51.148;14.068;2023-12-20T00:44:26;6.10;;;3.55;;
52318;SDS011;38258;51.148;14.068;2023-12-20T00:46:52;5.53;;;3.17;;
52318;SDS011;38258;51.148;14.068;2023-12-20T00:49:19;5.75;;;3.40;;
52318;SDS011;38258;51.148;14.068;2023-12-20T00:51:45;6.72;;;4.05;;
52318;SDS011;38258;51.148;14.068;2023-12-20T00:54:13;5.95;;;3.17;;
52318;SDS011;38258;51.148;14.068;2023-12-20T00:56:39;6.25;;;2.97;;
52318;SDS011;38258;51.148;14.068;2023-12-20T00:59:07;6.60;;;3.38;;
52318;SDS011;38258;51.148;14.068;2023-12-20T01:01:34;6.00;;;3.35;;
52318;SDS011;38258;51.148;14.068;2023-12-20T01:04:00;4.38;;;2.50;;
52318;SDS011;38258;51.148;14.068;2023-12-20T01:06:26;4.35;;;2.70;;
52318;SDS011;38258;51.148;14.068;2023-12-20T01:08:53;4.90;;;2.63;;
52318;SDS011;38258;51.148;14.068;2023-12-20T01:11:19;5.93;;;3.05;;
52318;SDS011;38258;51.148;14.068;2023-12-20T01:13:46;5.47;;;3.10;;
52318;SDS011;38258;51.148;14.068;2023-12-20T01:16:14;5.85;;;3.03;;
52318;SDS011;38258;51.148;14.068;2023-12-20T01:18:40;5.35;;;2.90;;
52318;SDS011;38258;51.148;14.068;2023-12-20T01:21:07;5.95;;;2.95;;
52318;SDS011;38258;51.148;14.068;2023-12-20T01:23:33;5.65;;;2.70;;
52318;SDS011;38258;51.148;14.068;2023-12-20T01:26:00;4.55;;;2.88;;
52318;SDS011;38258;51.148;14.068;2023-12-20T01:28:27;5.22;;;3.05;;
52318;SDS011;38258;51.148;14.068;2023-12-20T01:30:54;5.25;;;3.00;;
52318;SDS011;38258;51.148;14.068;2023-12-20T01:33:22;5.70;;;3.00;;
52318;SDS011;38258;51.148;14.068;2023-12-20T01:35:48;5.95;;;2.40;;
52318;SDS011;38258;51.148;14.068;2023-12-20T01:38:15;4.72;;;2.88;;
52318;SDS011;38258;51.148;14.068;2023-12-20T01:40:43;4.80;;;2.45;;
52318;SDS011;38258;51.148;14.068;2023-12-20T01:43:10;4.50;;;2.70;;
52318;SDS011;38258;51.148;14.068;2023-12-20T01:45:37;5.55;;;2.78;;
52318;SDS011;38258;51.148;14.068;2023-12-20T01:48:04;4.35;;;2.40;;
52318;SDS011;38258;51.148;14.068;2023-12-20T01:50:33;4.43;;;2.67;;
52318;SDS011;38258;51.148;14.068;2023-12-20T01:53:02;6.10;;;2.92;;
52318;SDS011;38258;51.148;14.068;2023-12-20T01:55:31;4.20;;;2.70;;
52318;SDS011;38258;51.148;14.068;2023-12-20T01:57:59;4.22;;;2.55;;
52318;SDS011;38258;51.148;14.068;2023-12-20T02:00:26;4.90;;;2.83;;
52318;SDS011;38258;51.148;14.068;2023-12-20T02:02:54;4.68;;;2.67;;
52318;SDS011;38258;51.148;14.068;2023-12-20T02:05:20;5.75;;;2.63;;
52318;SDS011;38258;51.148;14.068;2023-12-20T02:07:49;4.45;;;2.33;;
52318;SDS011;38258;51.148;14.068;2023-12-20T02:10:15;4.85;;;2.50;;
52318;SDS011;38258;51.148;14.068;2023-12-20T02:12:42;4.88;;;2.35;;
52318;SDS011;38258;51.148;14.068;2023-12-20T02:15:08;4.28;;;2.40;;
52318;SDS011;38258;51.148;14.068;2023-12-20T02:17:35;4.05;;;2.47;;
52318;SDS011;38258;51.148;14.068;2023-12-20T02:20:03;3.65;;;1.95;;
52318;SDS011;38258;51.148;14.068;2023-12-20T02:22:35;3.72;;;2.28;;
52318;SDS011;38258;51.148;14.068;2023-12-20T02:25:02;3.75;;;2.17;;
52318;SDS011;38258;51.148;14.068;2023-12-20T02:27:28;4.03;;;2.10;;
52318;SDS011;38258;51.148;14.068;2023-12-20T02:29:56;3.25;;;1.77;;
52318;SDS011;38258;51.148;14.068;2023-12-20T02:32:22;3.88;;;2.13;;
52318;SDS011;38258;51.148;14.068;2023-12-20T02:34:51;3.40;;;1.95;;
52318;SDS011;38258;51.148;14.068;2023-12-20T02:37:18;4.25;;;2.10;;
52318;SDS011;38258;51.148;14.068;2023-12-20T02:39:46;2.95;;;2.05;;
52318;SDS011;38258;51.148;14.068;2023-12-20T02:42:12;3.08;;;1.90;;
52318;SDS011;38258;51.148;14.068;2023-12-20T02:44:39;3.75;;;2.20;;
52318;SDS011;38258;51.148;14.068;2023-12-20T02:47:06;3.25;;;2.10;;
52318;SDS011;38258;51.148;14.068;2023-12-20T02:49:32;4.82;;;2.10;;
52318;SDS011;38258;51.148;14.068;2023-12-20T02:51:59;2.60;;;1.92;;
52318;SDS011;38258;51.148;14.068;2023-12-20T02:54:25;2.65;;;1.67;;
52318;SDS011;38258;51.148;14.068;2023-12-20T02:56:53;3.92;;;1.83;;
52318;SDS011;38258;51.148;14.068;2023-12-20T02:59:20;3.28;;;1.90;;
52318;SDS011;38258;51.148;14.068;2023-12-20T03:01:47;3.33;;;1.73;;
52318;SDS011;38258;51.148;14.068;2023-12-20T03:04:13;3.50;;;1.95;;
52318;SDS011;38258;51.148;14.068;2023-12-20T03:06:40;3.25;;;2.03;;
52318;SDS011;38258;51.148;14.068;2023-12-20T03:09:06;3.65;;;1.90;;
52318;SDS011;38258;51.148;14.068;2023-12-20T03:11:33;3.58;;;1.92;;
52318;SDS011;38258;51.148;14.068;2023-12-20T03:14:01;3.55;;;1.98;;
52318;SDS011;38258;51.148;14.068;2023-12-20T03:16:27;2.92;;;1.83;;
52318;SDS011;38258;51.148;14.068;2023-12-20T03:18:54;2.70;;;1.70;;
52318;SDS011;38258;51.148;14.068;2023-12-20T03:21:20;3.22;;;1.85;;
52318;SDS011;38258;51.148;14.068;2023-12-20T03:23:47;3.22;;;2.03;;
52318;SDS011;38258;51.148;14.068;2023-12-20T03:26:13;3.63;;;2.10;;
52318;SDS011;38258;51.148;14.068;2023-12-20T03:28:40;3.40;;;2.00;;
52318;SDS011;38258;51.148;14.068;2023-12-20T03:31:08;4.40;;;2.40;;
52318;SDS011;38258;51.148;14.068;2023-12-20T03:33:35;3.28;;;2.08;;
52318;SDS011;38258;51.148;14.068;2023-12-20T03:36:02;3.97;;;2.30;;
52318;SDS011;38258;51.148;14.068;2023-12-20T03:38:28;4.13;;;2.45;;
52318;SDS011;38258;51.148;14.068;2023-12-20T03:40:55;6.25;;;2.35;;
52318;SDS011;38258;51.148;14.068;2023-12-20T03:43:22;3.85;;;2.25;;
52318;SDS011;38258;51.148;14.068;2023-12-20T03:45:48;4.35;;;2.20;;
52318;SDS011;38258;51.148;14.068;2023-12-20T03:48:16;4.40;;;2.50;;
52318;SDS011;38258;51.148;14.068;2023-12-20T03:50:42;4.40;;;2.50;;
52318;SDS011;38258;51.148;14.068;2023-12-20T03:53:09;4.40;;;2.55;;
52318;SDS011;38258;51.148;14.068;2023-12-20T03:55:36;3.78;;;2.42;;
52318;SDS011;38258;51.148;14.068;2023-12-20T03:58:02;4.00;;;2.42;;
52318;SDS011;38258;51.148;14.068;2023-12-20T04:00:29;7.07;;;2.60;;
52318;SDS011;38258;51.148;14.068;2023-12-20T04:02:55;4.28;;;2.42;;
52318;SDS011;38258;51.148;14.068;2023-12-20T04:05:23;3.83;;;2.55;;
52318;SDS011;38258;51.148;14.068;2023-12-20T04:07:50;3.72;;;2.42;;
52318;SDS011;38258;51.148;14.068;2023-12-20T04:10:16;4.18;;;2.63;;
52318;SDS011;38258;51.148;14.068;2023-12-20T04:12:43;3.85;;;2.53;;
52318;SDS011;38258;51.148;14.068;2023-12-20T04:15:09;3.58;;;2.30;;
52318;SDS011;38258;51.148;14.068;2023-12-20T04:17:37;4.55;;;2.47;;
52318;SDS011;38258;51.148;14.068;2023-12-20T04:20:04;4.43;;;2.60;;
52318;SDS011;38258;51.148;14.068;2023-12-20T04:22:33;3.67;;;2.35;;
52318;SDS011;38258;51.148;14.068;2023-12-20T04:24:59;4.35;;;2.78;;
52318;SDS011;38258;51.148;14.068;2023-12-20T04:27:26;4.00;;;2.67;;
52318;SDS011;38258;51.148;14.068;2023-12-20T04:29:52;5.32;;;2.90;;
52318;SDS011;38258;51.148;14.068;2023-12-20T04:32:19;6.13;;;2.70;;
52318;SDS011;38258;51.148;14.068;2023-12-20T04:34:45;4.53;;;3.00;;
52318;SDS011;38258;51.148;14.068;2023-12-20T04:37:12;4.97;;;3.15;;
52318;SDS011;38258;51.148;14.068;2023-12-20T04:39:40;4.40;;;2.58;;
52318;SDS011;38258;51.148;14.068;2023-12-20T04:42:07;4.32;;;2.75;;
52318;SDS011;38258;51.148;14.068;2023-12-20T04:44:33;4.40;;;2.75;;
52318;SDS011;38258;51.148;14.068;2023-12-20T04:47:00;4.18;;;2.92;;
52318;SDS011;38258;51.148;14.068;2023-12-20T04:49:26;4.50;;;2.80;;
52318;SDS011;38258;51.148;14.068;2023-12-20T04:51:53;4.25;;;2.63;;
52318;SDS011;38258;51.148;14.068;2023-12-20T04:54:20;4.80;;;2.80;;
52318;SDS011;38258;51.148;14.068;2023-12-20T04:56:49;5.55;;;2.53;;
52318;SDS011;38258;51.148;14.068;2023-12-20T04:59:16;3.58;;;2.40;;
52318;SDS011;38258;51.148;14.068;2023-12-20T05:01:42;4.80;;;2.58;;
52318;SDS011;38258;51.148;14.068;2023-12-20T05:04:09;4.28;;;2.50;;
52318;SDS011;38258;51.148;14.068;2023-12-20T05:06:35;3.63;;;2.30;;
52318;SDS011;38258;51.148;14.068;2023-12-20T05:09:02;4.70;;;2.40;;
52318;SDS011;38258;51.148;14.068;2023-12-20T05:11:29;4.43;;;2.50;;
52318;SDS011;38258;51.148;14.068;2023-12-20T05:13:57;4.22;;;2.60;;
52318;SDS011;38258;51.148;14.068;2023-12-20T05:16:23;4.10;;;2.60;;
52318;SDS011;38258;51.148;14.068;2023-12-20T05:18:50;5.68;;;2.70;;
52318;SDS011;38258;51.148;14.068;2023-12-20T05:21:17;3.97;;;2.47;;
52318;SDS011;38258;51.148;14.068;2023-12-20T05:23:44;3.38;;;2.28;;
52318;SDS011;38258;51.148;14.068;2023-12-20T05:26:11;5.40;;;2.92;;
52318;SDS011;38258;51.148;14.068;2023-12-20T05:28:38;5.10;;;3.45;;
52318;SDS011;38258;51.148;14.068;2023-12-20T05:31:06;3.55;;;2.50;;
52318;SDS011;38258;51.148;14.068;2023-12-20T05:33:33;4.20;;;2.65;;
52318;SDS011;38258;51.148;14.068;2023-12-20T05:35:59;4.57;;;2.83;;
52318;SDS011;38258;51.148;14.068;2023-12-20T05:38:26;4.88;;;3.00;;
52318;SDS011;38258;51.148;14.068;2023-12-20T05:40:53;4.57;;;2.80;;
52318;SDS011;38258;51.148;14.068;2023-12-20T05:43:19;4.38;;;2.83;;
52318;SDS011;38258;51.148;14.068;2023-12-20T05:45:46;5.07;;;2.80;;
52318;SDS011;38258;51.148;14.068;2023-12-20T05:48:14;3.88;;;2.50;;
52318;SDS011;38258;51.148;14.068;2023-12-20T05:50:40;4.45;;;2.65;;
52318;SDS011;38258;51.148;14.068;2023-12-20T05:53:07;4.32;;;2.50;;
52318;SDS011;38258;51.148;14.068;2023-12-20T05:55:34;3.95;;;2.47;;
52318;SDS011;38258;51.148;14.068;2023-12-20T05:58:00;4.07;;;2.50;;
52318;SDS011;38258;51.148;14.068;2023-12-20T06:00:26;4.68;;;2.47;;
52318;SDS011;38258;51.148;14.068;2023-12-20T06:02:53;5.90;;;2.70;;
52318;SDS011;38258;51.148;14.068;2023-12-20T06:05:21;4.40;;;2.72;;
52318;SDS011;38258;51.148;14.068;2023-12-20T06:07:47;4.68;;;2.47;;
52318;SDS011;38258;51.148;14.068;2023-12-20T06:10:15;3.28;;;2.22;;
52318;SDS011;38258;51.148;14.068;2023-12-20T06:12:42;4.70;;;2.53;;
52318;SDS011;38258;51.148;14.068;2023-12-20T06:15:08;4.72;;;2.78;;
52318;SDS011;38258;51.148;14.068;2023-12-20T06:17:35;4.70;;;2.67;;
52318;SDS011;38258;51.148;14.068;2023-12-20T06:20:02;4.50;;;2.55;;
52318;SDS011;38258;51.148;14.068;2023-12-20T06:22:34;4.32;;;2.78;;
52318;SDS011;38258;51.148;14.068;2023-12-20T06:25:00;5.43;;;2.85;;
52318;SDS011;38258;51.148;14.068;2023-12-20T06:27:27;3.33;;;2.35;;
52318;SDS011;38258;51.148;14.068;2023-12-20T06:29:54;4.85;;;2.88;;
52318;SDS011;38258;51.148;14.068;2023-12-20T06:32:22;4.85;;;2.92;;
52318;SDS011;38258;51.148;14.068;2023-12-20T06:34:49;4.43;;;2.67;;
52318;SDS011;38258;51.148;14.068;2023-12-20T06:37:16;4.43;;;3.00;;
52318;SDS011;38258;51.148;14.068;2023-12-20T06:39:44;4.35;;;2.58;;
52318;SDS011;38258;51.148;14.068;2023-12-20T06:42:12;4.28;;;2.80;;
52318;SDS011;38258;51.148;14.068;2023-12-20T06:44:39;5.20;;;3.17;;
52318;SDS011;38258;51.148;14.068;2023-12-20T06:47:05;6.90;;;4.57;;
52318;SDS011;38258;51.148;14.068;2023-12-20T06:49:32;5.22;;;3.20;;
52318;SDS011;38258;51.148;14.068;2023-12-20T06:51:58;4.88;;;2.85;;
52318;SDS011;38258;51.148;14.068;2023-12-20T06:54:25;5.18;;;3.28;;
52318;SDS011;38258;51.148;14.068;2023-12-20T06:56:53;6.15;;;3.55;;
52318;SDS011;38258;51.148;14.068;2023-12-20T06:59:20;5.78;;;3.50;;
52318;SDS011;38258;51.148;14.068;2023-12-20T07:01:47;6.25;;;3.38;;
52318;SDS011;38258;51.148;14.068;2023-12-20T07:04:14;5.72;;;3.45;;
52318;SDS011;38258;51.148;14.068;2023-12-20T07:06:41;6.57;;;3.67;;
52318;SDS011;38258;51.148;14.068;2023-12-20T07:09:08;10.60;;;5.43;;
52318;SDS011;38258;51.148;14.068;2023-12-20T07:11:38;11.93;;;5.75;;
52318;SDS011;38258;51.148;14.068;2023-12-20T07:14:06;8.93;;;5.10;;
52318;SDS011;38258;51.148;14.068;2023-12-20T07:16:32;7.32;;;4.13;;
52318;SDS011;38258;51.148;14.068;2023-12-20T07:19:00;8.00;;;4.60;;
52318;SDS011;38258;51.148;14.068;2023-12-20T07:21:26;7.25;;;4.68;;
52318;SDS011;38258;51.148;14.068;2023-12-20T07:23:53;7.22;;;4.18;;
52318;SDS011;38258;51.148;14.068;2023-12-20T07:26:19;9.13;;;4.18;;
52318;SDS011;38258;51.148;14.068;2023-12-20T07:28:46;6.10;;;3.45;;
52318;SDS011;38258;51.148;14.068;2023-12-20T07:31:16;4.82;;;2.95;;
52318;SDS011;38258;51.148;14.068;2023-12-20T07:33:43;7.72;;;2.90;;
52318;SDS011;38258;51.148;14.068;2023-12-20T07:36:09;5.57;;;3.22;;
52318;SDS011;38258;51.148;14.068;2023-12-20T07:38:36;5.22;;;2.60;;
52318;SDS011;38258;51.148;14.068;2023-12-20T07:41:03;5.00;;;2.50;;
52318;SDS011;38258;51.148;14.068;2023-12-20T07:43:30;6.28;;;2.33;;
52318;SDS011;38258;51.148;14.068;2023-12-20T07:45:56;5.97;;;2.97;;
52318;SDS011;38258;51.148;14.068;2023-12-20T07:48:25;6.60;;;3.35;;
52318;SDS011;38258;51.148;14.068;2023-12-20T07:50:51;7.03;;;3.17;;
52318;SDS011;38258;51.148;14.068;2023-12-20T07:53:19;4.55;;;2.45;;
52318;SDS011;38258;51.148;14.068;2023-12-20T07:55:45;5.50;;;2.22;;
52318;SDS011;38258;51.148;14.068;2023-12-20T07:58:12;4.78;;;2.50;;
52318;SDS011;38258;51.148;14.068;2023-12-20T08:00:38;6.28;;;2.55;;
52318;SDS011;38258;51.148;14.068;2023-12-20T08:03:04;4.43;;;2.45;;
52318;SDS011;38258;51.148;14.068;2023-12-20T08:05:33;7.00;;;3.25;;
52318;SDS011;38258;51.148;14.068;2023-12-20T08:07:59;6.53;;;3.67;;
52318;SDS011;38258;51.148;14.068;2023-12-20T08:10:26;8.90;;;3.85;;
52318;SDS011;38258;51.148;14.068;2023-12-20T08:12:54;6.57;;;4.00;;
52318;SDS011;38258;51.148;14.068;2023-12-20T08:15:23;8.00;;;4.47;;
52318;SDS011;38258;51.148;14.068;2023-12-20T08:17:49;9.88;;;5.32;;
52318;SDS011;38258;51.148;14.068;2023-12-20T08:20:16;8.48;;;4.88;;
52318;SDS011;38258;51.148;14.068;2023-12-20T08:22:44;10.27;;;4.93;;
52318;SDS011;38258;51.148;14.068;2023-12-20T08:25:11;9.40;;;5.18;;
52318;SDS011;38258;51.148;14.068;2023-12-20T08:27:39;10.50;;;5.80;;
52318;SDS011;38258;51.148;14.068;2023-12-20T08:30:06;8.90;;;5.00;;
52318;SDS011;38258;51.148;14.068;2023-12-20T08:32:35;9.45;;;4.65;;
52318;SDS011;38258;51.148;14.068;2023-12-20T08:35:01;11.55;;;5.10;;
52318;SDS011;38258;51.148;14.068;2023-12-20T08:37:28;8.38;;;4.97;;
52318;SDS011;38258;51.148;14.068;2023-12-20T08:39:57;9.15;;;5.35;;
52318;SDS011;38258;51.148;14.068;2023-12-20T08:42:23;10.25;;;6.22;;
52318;SDS011;38258;51.148;14.068;2023-12-20T08:44:56;9.18;;;4.78;;
52318;SDS011;38258;51.148;14.068;2023-12-20T08:47:23;9.52;;;4.60;;
52318;SDS011;38258;51.148;14.068;2023-12-20T08:49:49;8.20;;;4.43;;
52318;SDS011;38258;51.148;14.068;2023-12-20T08:52:16;7.75;;;4.40;;
52318;SDS011;38258;51.148;14.068;2023-12-20T08:54:43;7.28;;;3.92;;
52318;SDS011;38258;51.148;14.068;2023-12-20T08:57:11;7.97;;;4.38;;
52318;SDS011;38258;51.148;14.068;2023-12-20T08:59:37;5.90;;;3.70;;
52318;SDS011;38258;51.148;14.068;2023-12-20T09:02:04;6.45;;;3.75;;
52318;SDS011;38258;51.148;14.068;2023-12-20T09:04:31;6.43;;;3.58;;
52318;SDS011;38258;51.148;14.068;2023-12-20T09:06:59;4.65;;;2.85;;
52318;SDS011;38258;51.148;14.068;2023-12-20T09:09:26;5.30;;;3.42;;
52318;SDS011;38258;51.148;14.068;2023-12-20T09:11:52;5.97;;;3.40;;
52318;SDS011;38258;51.148;14.068;2023-12-20T09:14:20;4.53;;;2.47;;
52318;SDS011;38258;51.148;14.068;2023-12-20T09:16:47;7.57;;;3.65;;
52318;SDS011;38258;51.148;14.068;2023-12-20T09:19:16;5.28;;;2.83;;
52318;SDS011;38258;51.148;14.068;2023-12-20T09:21:44;4.93;;;3.22;;
52318;SDS011;38258;51.148;14.068;2023-12-20T09:24:11;5.00;;;2.83;;
52318;SDS011;38258;51.148;14.068;2023-12-20T09:26:37;4.85;;;2.72;;
52318;SDS011;38258;51.148;14.068;2023-12-20T09:29:05;3.53;;;1.90;;
52318;SDS011;38258;51.148;14.068;2023-12-20T09:31:37;4.43;;;2.17;;
52318;SDS011;38258;51.148;14.068;2023-12-20T09:34:03;4.20;;;2.10;;
52318;SDS011;38258;51.148;14.068;2023-12-20T09:36:32;3.83;;;1.83;;
52318;SDS011;38258;51.148;14.068;2023-12-20T09:39:01;3.38;;;1.85;;
52318;SDS011;38258;51.148;14.068;2023-12-20T09:41:27;3.55;;;1.70;;
52318;SDS011;38258;51.148;14.068;2023-12-20T09:43:58;6.45;;;1.70;;
52318;SDS011;38258;51.148;14.068;2023-12-20T09:46:29;2.97;;;1.77;;
52318;SDS011;38258;51.148;14.068;2023-12-20T09:49:01;3.47;;;1.65;;
52318;SDS011;38258;51.148;14.068;2023-12-20T09:51:28;4.30;;;1.90;;
52318;SDS011;38258;51.148;14.068;2023-12-20T09:53:55;4.03;;;1.70;;
52318;SDS011;38258;51.148;14.068;2023-12-20T09:56:23;2.22;;;1.50;;
52318;SDS011;38258;51.148;14.068;2023-12-20T09:58:51;2.58;;;1.63;;
52318;SDS011;38258;51.148;14.068;2023-12-20T10:01:19;4.07;;;2.00;;
52318;SDS011;38258;51.148;14.068;2023-12-20T10:03:47;6.97;;;2.42;;
52318;SDS011;38258;51.148;14.068;2023-12-20T10:06:15;4.53;;;1.90;;
52318;SDS011;38258;51.148;14.068;2023-12-20T10:08:42;2.90;;;1.80;;
52318;SDS011;38258;51.148;14.068;2023-12-20T10:11:08;3.97;;;1.90;;
52318;SDS011;38258;51.148;14.068;2023-12-20T10:13:37;3.35;;;1.63;;
52318;SDS011;38258;51.148;14.068;2023-12-20T10:16:05;4.95;;;2.20;;
52318;SDS011;38258;51.148;14.068;2023-12-20T10:18:32;4.82;;;2.00;;
52318;SDS011;38258;51.148;14.068;2023-12-20T10:20:59;3.67;;;2.60;;
52318;SDS011;38258;51.148;14.068;2023-12-20T10:23:28;4.35;;;2.20;;
52318;SDS011;38258;51.148;14.068;2023-12-20T10:25:57;5.18;;;2.30;;
52318;SDS011;38258;51.148;14.068;2023-12-20T10:28:25;7.20;;;2.25;;
52318;SDS011;38258;51.148;14.068;2023-12-20T10:30:53;3.25;;;2.00;;
52318;SDS011;38258;51.148;14.068;2023-12-20T10:33:23;4.05;;;2.30;;
52318;SDS011;38258;51.148;14.068;2023-12-20T10:35:50;4.93;;;2.50;;
52318;SDS011;38258;51.148;14.068;2023-12-20T10:38:16;4.32;;;2.10;;
52318;SDS011;38258;51.148;14.068;2023-12-20T10:40:45;9.45;;;2.47;;
52318;SDS011;38258;51.148;14.068;2023-12-20T10:43:12;6.93;;;2.40;;
52318;SDS011;38258;51.148;14.068;2023-12-20T10:45:39;5.30;;;2.63;;
52318;SDS011;38258;51.148;14.068;2023-12-20T10:48:07;6.78;;;2.83;;
52318;SDS011;38258;51.148;14.068;2023-12-20T10:50:36;5.72;;;2.72;;
52318;SDS011;38258;51.148;14.068;2023-12-20T10:53:05;4.93;;;2.60;;
52318;SDS011;38258;51.148;14.068;2023-12-20T10:55:32;7.30;;;2.50;;
52318;SDS011;38258;51.148;14.068;2023-12-20T10:58:01;6.07;;;2.67;;
52318;SDS011;38258;51.148;14.068;2023-12-20T11:00:34;5.32;;;2.30;;
52318;SDS011;38258;51.148;14.068;2023-12-20T11:03:05;5.70;;;2.08;;
52318;SDS011;38258;51.148;14.068;2023-12-20T11:05:36;5.20;;;2.63;;
52318;SDS011;38258;51.148;14.068;2023-12-20T11:08:09;3.60;;;2.33;;
52318;SDS011;38258;51.148;14.068;2023-12-20T11:10:39;2.67;;;1.50;;
52318;SDS011;38258;51.148;14.068;2023-12-20T11:13:15;5.30;;;1.95;;
52318;SDS011;38258;51.148;14.068;2023-12-20T11:15:46;3.60;;;1.73;;
52318;SDS011;38258;51.148;14.068;2023-12-20T11:18:13;6.70;;;2.15;;
52318;SDS011;38258;51.148;14.068;2023-12-20T11:20:41;5.15;;;1.60;;
52318;SDS011;38258;51.148;14.068;2023-12-20T11:23:08;2.75;;;1.90;;
52318;SDS011;38258;51.148;14.068;2023-12-20T11:28:22;5.68;;;2.65;;
52318;SDS011;38258;51.148;14.068;2023-12-20T11:30:50;5.47;;;2.13;;
52318;SDS011;38258;51.148;14.068;2023-12-20T11:33:20;6.55;;;2.13;;
52318;SDS011;38258;51.148;14.068;2023-12-20T11:35:48;4.00;;;1.92;;
52318;SDS011;38258;51.148;14.068;2023-12-20T11:38:14;3.33;;;1.90;;
52318;SDS011;38258;51.148;14.068;2023-12-20T11:40:41;5.15;;;1.92;;
52318;SDS011;38258;51.148;14.068;2023-12-20T11:43:08;6.25;;;2.40;;
52318;SDS011;38258;51.148;14.068;2023-12-20T11:45:36;3.97;;;1.90;;
52318;SDS011;38258;51.148;14.068;2023-12-20T11:48:03;3.58;;;2.13;;
52318;SDS011;38258;51.148;14.068;2023-12-20T11:50:30;6.38;;;2.80;;
52318;SDS011;38258;51.148;14.068;2023-12-20T11:52:57;4.00;;;2.30;;
52318;SDS011;38258;51.148;14.068;2023-12-20T11:55:24;5.55;;;2.35;;
52318;SDS011;38258;51.148;14.068;2023-12-20T11:57:51;5.05;;;2.40;;
52318;SDS011;38258;51.148;14.068;2023-12-20T12:00:18;5.93;;;1.98;;
52318;SDS011;38258;51.148;14.068;2023-12-20T12:02:56;4.57;;;2.00;;
52318;SDS011;38258;51.148;14.068;2023-12-20T12:05:23;4.93;;;2.65;;
52318;SDS011;38258;51.148;14.068;2023-12-20T12:07:50;4.57;;;2.38;;
52318;SDS011;38258;51.148;14.068;2023-12-20T12:10:16;5.47;;;2.42;;
52318;SDS011;38258;51.148;14.068;2023-12-20T12:12:42;8.07;;;3.90;;
52318;SDS011;38258;51.148;14.068;2023-12-20T12:15:09;4.88;;;1.90;;
52318;SDS011;38258;51.148;14.068;2023-12-20T12:17:36;5.60;;;2.10;;
52318;SDS011;38258;51.148;14.068;2023-12-20T12:20:05;6.97;;;2.95;;
52318;SDS011;38258;51.148;14.068;2023-12-20T12:22:34;3.15;;;2.03;;
52318;SDS011;38258;51.148;14.068;2023-12-20T12:25:11;5.13;;;2.38;;
52318;SDS011;38258;51.148;14.068;2023-12-20T12:27:42;6.18;;;2.40;;
52318;SDS011;38258;51.148;14.068;2023-12-20T12:30:09;3.08;;;1.65;;
52318;SDS011;38258;51.148;14.068;2023-12-20T12:32:40;3.70;;;2.28;;
52318;SDS011;38258;51.148;14.068;2023-12-20T12:35:11;5.80;;;2.65;;
52318;SDS011;38258;51.148;14.068;2023-12-20T12:37:38;4.30;;;2.00;;
52318;SDS011;38258;51.148;14.068;2023-12-20T12:40:07;5.75;;;2.47;;
52318;SDS011;38258;51.148;14.068;2023-12-20T12:42:36;10.05;;;4.63;;
52318;SDS011;38258;51.148;14.068;2023-12-20T12:45:06;7.30;;;2.85;;
52318;SDS011;38258;51.148;14.068;2023-12-20T12:47:38;4.63;;;2.33;;
52318;SDS011;38258;51.148;14.068;2023-12-20T12:52:45;5.35;;;2.42;;
52318;SDS011;38258;51.148;14.068;2023-12-20T12:55:18;5.28;;;2.47;;
52318;SDS011;38258;51.148;14.068;2023-12-20T12:57:47;3.25;;;1.90;;
52318;SDS011;38258;51.148;14.068;2023-12-20T13:00:26;3.95;;;2.08;;
52318;SDS011;38258;51.148;14.068;2023-12-20T13:02:53;6.10;;;2.30;;
52318;SDS011;38258;51.148;14.068;2023-12-20T13:05:32;3.97;;;2.20;;
52318;SDS011;38258;51.148;14.068;2023-12-20T13:08:01;4.68;;;1.90;;
52318;SDS011;38258;51.148;14.068;2023-12-20T13:10:30;5.85;;;2.05;;
52318;SDS011;38258;51.148;14.068;2023-12-20T13:13:06;6.07;;;2.40;;
52318;SDS011;38258;51.148;14.068;2023-12-20T13:15:42;2.92;;;1.95;;
52318;SDS011;38258;51.148;14.068;2023-12-20T13:18:26;5.95;;;2.08;;
52318;SDS011;38258;51.148;14.068;2023-12-20T13:20:58;5.32;;;2.05;;
52318;SDS011;38258;51.148;14.068;2023-12-20T13:23:29;4.95;;;2.25;;
52318;SDS011;38258;51.148;14.068;2023-12-20T13:26:03;4.50;;;2.10;;
52318;SDS011;38258;51.148;14.068;2023-12-20T13:28:44;3.47;;;1.52;;
52318;SDS011;38258;51.148;14.068;2023-12-20T13:31:36;5.28;;;2.00;;
52318;SDS011;38258;51.148;14.068;2023-12-20T13:34:04;3.63;;;1.60;;
52318;SDS011;38258;51.148;14.068;2023-12-20T13:40:09;9.00;;;3.10;;
52318;SDS011;38258;51.148;14.068;2023-12-20T13:42:37;7.10;;;2.60;;
52318;SDS011;38258;51.148;14.068;2023-12-20T13:45:05;3.88;;;1.98;;
52318;SDS011;38258;51.148;14.068;2023-12-20T13:47:53;4.40;;;2.25;;
52318;SDS011;38258;51.148;14.068;2023-12-20T13:50:26;6.03;;;2.53;;
52318;SDS011;38258;51.148;14.068;2023-12-20T13:52:57;5.63;;;2.20;;
52318;SDS011;38258;51.148;14.068;2023-12-20T13:55:29;3.30;;;1.98;;
52318;SDS011;38258;51.148;14.068;2023-12-20T13:57:56;4.15;;;2.10;;
52318;SDS011;38258;51.148;14.068;2023-12-20T14:00:23;4.97;;;2.30;;
52318;SDS011;38258;51.148;14.068;2023-12-20T14:03:06;5.93;;;2.78;;
52318;SDS011;38258;51.148;14.068;2023-12-20T14:05:35;3.70;;;1.95;;
52318;SDS011;38258;51.148;14.068;2023-12-20T14:08:04;4.78;;;2.20;;
52318;SDS011;38258;51.148;14.068;2023-12-20T14:10:47;3.72;;;2.28;;
52318;SDS011;38258;51.148;14.068;2023-12-20T14:13:29;3.88;;;1.73;;
52318;SDS011;38258;51.148;14.068;2023-12-20T14:16:09;4.85;;;1.90;;
52318;SDS011;38258;51.148;14.068;2023-12-20T14:18:54;6.13;;;2.50;;
52318;SDS011;38258;51.148;14.068;2023-12-20T14:21:25;8.13;;;3.15;;
52318;SDS011;38258;51.148;14.068;2023-12-20T14:23:59;3.15;;;1.80;;
52318;SDS011;38258;51.148;14.068;2023-12-20T14:27:14;6.47;;;2.00;;
52318;SDS011;38258;51.148;14.068;2023-12-20T14:30:00;5.30;;;1.92;;
52318;SDS011;38258;51.148;14.068;2023-12-20T14:32:41;4.57;;;2.00;;
52318;SDS011;38258;51.148;14.068;2023-12-20T14:35:08;6.10;;;2.17;;
52318;SDS011;38258;51.148;14.068;2023-12-20T14:37:37;4.38;;;2.45;;
52318;SDS011;38258;51.148;14.068;2023-12-20T14:40:10;3.42;;;1.60;;
52318;SDS011;38258;51.148;14.068;2023-12-20T14:42:53;3.17;;;1.80;;
52318;SDS011;38258;51.148;14.068;2023-12-20T14:45:23;4.22;;;2.33;;
52318;SDS011;38258;51.148;14.068;2023-12-20T14:47:55;3.95;;;1.90;;